createdAt,value
2022-11-01T00:02:24.294Z,57.48
2022-11-01T00:04:53.514Z,57.42
2022-11-01T00:07:22.394Z,57.50
2022-11-01T00:09:51.179Z,57.32
2022-11-01T00:12:20.169Z,57.23
2022-11-01T00:14:48.901Z,57.19
2022-11-01T00:17:17.807Z,57.30
2022-11-01T00:19:46.610Z,57.01
2022-11-01T00:22:15.509Z,57.05
2022-11-01T00:24:44.368Z,56.93
2022-11-01T00:27:13.171Z,57.47
2022-11-01T00:29:42.035Z,57.29
2022-11-01T00:32:10.801Z,57.63
2022-11-01T00:34:39.564Z,57.47
2022-11-01T00:37:08.296Z,57.03
2022-11-01T00:39:37.119Z,57.34
2022-11-01T00:42:05.910Z,56.99
2022-11-01T00:44:34.655Z,56.64
2022-11-01T00:47:03.409Z,56.82
2022-11-01T00:49:32.164Z,56.82
2022-11-01T00:52:00.927Z,56.98
2022-11-01T00:54:29.764Z,56.62
2022-11-01T00:56:58.520Z,56.32
2022-11-01T00:59:27.393Z,56.56
2022-11-01T01:01:57.234Z,56.34
2022-11-01T01:04:26.277Z,56.77
2022-11-01T01:06:55.166Z,56.51
2022-11-01T01:09:23.968Z,56.29
2022-11-01T01:11:52.704Z,56.16
2022-11-01T01:14:21.458Z,56.53
2022-11-01T01:16:50.190Z,55.96
2022-11-01T01:19:18.955Z,56.16
2022-11-01T01:21:47.793Z,56.10
2022-11-01T01:24:16.564Z,56.00
2022-11-01T01:26:45.348Z,55.86
2022-11-01T01:29:14.289Z,55.78
2022-11-01T01:31:43.168Z,56.05
2022-11-01T01:34:11.960Z,56.42
2022-11-01T01:36:40.778Z,56.34
2022-11-01T01:39:10.694Z,55.94
2022-11-01T01:41:57.794Z,56.20
2022-11-01T01:44:50.625Z,56.62
2022-11-01T01:47:48.673Z,56.45
2022-11-01T01:50:20.480Z,56.66
2022-11-01T01:53:04.989Z,56.53
2022-11-01T01:55:47.256Z,56.30
2022-11-01T01:58:18.942Z,56.32
2022-11-01T02:00:48.515Z,56.00
2022-11-01T02:03:18.193Z,56.11
2022-11-01T02:05:58.896Z,55.76
2022-11-01T02:08:29.241Z,56.22
2022-11-01T02:11:05.256Z,54.38
2022-11-01T02:13:34.227Z,53.89
2022-11-01T02:16:16.726Z,52.64
2022-11-01T02:19:10.023Z,52.20
2022-11-01T02:21:56.737Z,52.91
2022-11-01T02:24:56.401Z,53.64
2022-11-01T02:27:55.868Z,54.29
2022-11-01T02:30:25.672Z,54.22
2022-11-01T02:33:11.081Z,54.47
2022-11-01T02:35:53.064Z,54.01
2022-11-01T02:38:36.906Z,53.60
2022-11-01T02:41:24.136Z,52.50
2022-11-01T02:44:10.502Z,52.37
2022-11-01T02:47:02.569Z,53.10
2022-11-01T02:49:41.474Z,53.56
2022-11-01T02:52:15.997Z,52.63
2022-11-01T02:54:50.071Z,53.24
2022-11-01T02:57:27.375Z,53.32
2022-11-01T03:00:03.798Z,53.13
2022-11-01T03:02:45.207Z,53.08
2022-11-01T03:05:28.732Z,52.33
2022-11-01T03:08:08.081Z,52.83
2022-11-01T03:10:47.137Z,52.88
2022-11-01T03:13:39.208Z,53.05
2022-11-01T03:16:32.752Z,53.12
2022-11-01T03:19:38.190Z,52.80
2022-11-01T03:22:21.480Z,53.18
2022-11-01T03:25:04.582Z,53.69
2022-11-01T03:27:42.824Z,52.58
2022-11-01T03:30:14.937Z,51.79
2022-11-01T03:32:55.326Z,49.76
2022-11-01T03:35:33.507Z,49.56
2022-11-01T03:38:07.905Z,49.92
2022-11-01T03:40:42.042Z,50.99
2022-11-01T03:43:14.539Z,51.19
2022-11-01T03:45:44.742Z,51.98
2022-11-01T03:48:13.637Z,50.06
2022-11-01T03:50:48.644Z,48.50
2022-11-01T03:53:17.710Z,47.16
2022-11-01T03:55:46.506Z,46.71
2022-11-01T03:58:15.531Z,48.36
2022-11-01T04:00:47.280Z,46.94
2022-11-01T04:03:16.393Z,46.77
2022-11-01T04:05:45.240Z,47.08
2022-11-01T04:08:14.162Z,46.35
2022-11-01T04:10:45.244Z,47.29
2022-11-01T04:13:14.305Z,47.54
2022-11-01T04:16:05.955Z,48.17
2022-11-01T04:18:53.127Z,49.15
2022-11-01T04:21:26.741Z,49.60
2022-11-01T04:23:55.545Z,50.26
2022-11-01T04:26:24.933Z,49.94
2022-11-01T04:28:59.413Z,49.99
2022-11-01T04:31:36.594Z,50.03
2022-11-01T04:34:06.351Z,49.86
2022-11-01T04:36:35.109Z,49.43
2022-11-01T04:39:03.953Z,49.02
2022-11-01T04:41:32.774Z,49.02
2022-11-01T04:44:01.611Z,49.78
2022-11-01T04:46:32.546Z,48.46
2022-11-01T04:49:01.311Z,47.21
2022-11-01T04:51:30.108Z,47.43
2022-11-01T04:53:58.980Z,48.03
2022-11-01T04:56:27.737Z,48.41
2022-11-01T04:58:57.780Z,48.78
2022-11-01T05:01:27.754Z,48.41
2022-11-01T05:03:56.772Z,47.51
2022-11-01T05:06:25.587Z,46.92
2022-11-01T05:08:55.651Z,46.66
2022-11-01T05:11:26.111Z,45.69
2022-11-01T05:13:55.038Z,45.41
2022-11-01T05:16:23.920Z,45.68
2022-11-01T05:18:52.661Z,46.13
2022-11-01T05:21:21.483Z,46.87
2022-11-01T05:23:50.468Z,46.29
2022-11-01T05:26:19.325Z,45.02
2022-11-01T05:28:48.564Z,45.62
2022-11-01T05:31:17.376Z,45.75
2022-11-01T05:33:46.146Z,46.13
2022-11-01T05:36:14.900Z,45.79
2022-11-01T05:38:43.766Z,45.86
2022-11-01T05:43:42.326Z,45.50
2022-11-01T05:46:11.315Z,45.24
2022-11-01T05:48:41.837Z,44.88
2022-11-01T05:51:11.607Z,43.64
2022-11-01T05:53:40.416Z,41.47
2022-11-01T05:56:09.328Z,39.50
2022-11-01T05:58:38.248Z,37.28
2022-11-01T06:01:08.687Z,36.71
2022-11-01T06:03:37.756Z,35.67
2022-11-01T06:06:06.948Z,35.06
2022-11-01T06:08:35.929Z,35.40
2022-11-01T06:11:06.871Z,35.76
2022-11-01T06:13:35.561Z,35.47
2022-11-01T06:16:06.651Z,35.07
2022-11-01T06:18:35.492Z,34.88
2022-11-01T06:21:04.517Z,34.46
2022-11-01T06:23:33.353Z,34.63
2022-11-01T06:26:03.447Z,34.42
2022-11-01T06:28:33.054Z,34.34
2022-11-01T06:33:34.722Z,34.58
2022-11-01T06:36:03.790Z,35.01
2022-11-01T06:38:32.554Z,36.22
2022-11-01T06:41:01.277Z,37.24
2022-11-01T06:43:30.186Z,38.28
2022-11-01T06:46:02.216Z,39.83
2022-11-01T06:48:31.027Z,40.79
2022-11-01T06:50:59.827Z,41.02
2022-11-01T06:53:28.666Z,41.32
2022-11-01T06:56:00.494Z,41.77
2022-11-01T06:58:29.293Z,42.30
2022-11-01T07:00:58.592Z,42.02
2022-11-01T07:03:27.490Z,42.14
2022-11-01T07:05:56.214Z,41.94
2022-11-01T07:08:24.987Z,42.19
2022-11-01T07:10:53.874Z,42.30
2022-11-01T07:13:22.754Z,42.42
2022-11-01T07:15:51.739Z,42.53
2022-11-01T07:18:20.724Z,42.55
2022-11-01T07:20:49.546Z,42.76
2022-11-01T07:23:18.531Z,42.50
2022-11-01T07:25:54.608Z,42.66
2022-11-01T07:28:24.566Z,42.79
2022-11-01T07:30:55.036Z,43.21
2022-11-01T07:33:23.890Z,42.94
2022-11-01T07:35:53.201Z,43.16
2022-11-01T07:38:22.721Z,43.63
2022-11-01T07:40:53.014Z,42.94
2022-11-01T07:43:22.508Z,41.08
2022-11-01T07:45:51.628Z,39.38
2022-11-01T07:48:20.677Z,38.22
2022-11-01T07:50:49.536Z,37.45
2022-11-01T07:53:20.074Z,36.70
2022-11-01T07:55:48.899Z,36.59
2022-11-01T07:58:17.848Z,36.56
2022-11-01T08:00:47.574Z,36.56
2022-11-01T08:03:18.701Z,36.28
2022-11-01T08:05:48.908Z,36.17
2022-11-01T08:08:17.725Z,35.64
2022-11-01T08:10:47.183Z,35.65
2022-11-01T08:13:25.774Z,35.75
2022-11-01T08:15:55.722Z,35.92
2022-11-01T08:18:27.186Z,36.11
2022-11-01T08:20:55.971Z,36.34
2022-11-01T08:23:24.766Z,36.33
2022-11-01T08:25:53.538Z,36.72
2022-11-01T08:28:23.297Z,36.87
2022-11-01T08:30:52.175Z,36.44
2022-11-01T08:33:20.947Z,36.55
2022-11-01T08:35:50.871Z,37.10
2022-11-01T08:38:20.319Z,37.08
2022-11-01T08:40:49.017Z,37.38
2022-11-01T08:43:18.524Z,37.70
2022-11-01T08:45:47.801Z,37.60
2022-11-01T08:48:16.733Z,37.40
2022-11-01T08:50:45.639Z,37.67
2022-11-01T08:53:15.754Z,37.80
2022-11-01T08:55:44.626Z,38.12
2022-11-01T08:58:13.572Z,38.92
2022-11-01T09:00:44.636Z,39.93
2022-11-01T09:03:13.680Z,40.82
2022-11-01T09:05:42.694Z,41.50
2022-11-01T09:08:11.533Z,41.44
2022-11-01T09:10:40.506Z,41.96
2022-11-01T09:13:09.644Z,41.88
2022-11-01T09:15:38.619Z,42.07
2022-11-01T09:18:08.461Z,42.36
2022-11-01T09:20:37.286Z,42.12
2022-11-01T09:23:06.254Z,42.65
2022-11-01T09:25:35.246Z,42.58
2022-11-01T09:28:04.061Z,42.87
2022-11-01T09:30:32.833Z,42.83
2022-11-01T09:33:05.809Z,43.36
2022-11-01T09:35:35.909Z,43.52
2022-11-01T09:38:05.118Z,43.52
2022-11-01T09:40:44.678Z,43.30
2022-11-01T09:43:22.955Z,43.58
2022-11-01T09:45:54.909Z,43.67
2022-11-01T09:48:26.133Z,43.80
2022-11-01T09:50:54.932Z,43.69
2022-11-01T09:53:28.990Z,43.92
2022-11-01T09:56:13.002Z,44.36
2022-11-01T09:59:20.382Z,44.43
2022-11-01T10:01:59.192Z,44.27
2022-11-01T10:04:34.451Z,44.44
2022-11-01T10:07:27.863Z,44.51
2022-11-01T10:10:34.203Z,44.82
2022-11-01T10:13:19.666Z,44.69
2022-11-01T10:15:55.843Z,44.80
2022-11-01T10:18:29.253Z,44.82
2022-11-01T10:21:01.844Z,45.01
2022-11-01T10:23:45.124Z,45.30
2022-11-01T10:26:18.752Z,45.03
2022-11-01T10:29:14.672Z,45.43
2022-11-01T10:31:52.383Z,45.26
2022-11-01T10:34:39.458Z,45.60
2022-11-01T10:37:23.772Z,45.85
2022-11-01T10:40:04.535Z,45.63
2022-11-01T10:42:37.644Z,45.71
2022-11-01T10:45:11.002Z,46.02
2022-11-01T10:47:43.315Z,45.93
2022-11-01T10:50:20.397Z,46.02
2022-11-01T10:53:01.432Z,46.10
2022-11-01T10:55:35.450Z,45.93
2022-11-01T10:58:09.867Z,46.42
2022-11-01T11:00:42.752Z,46.32
2022-11-01T11:03:30.992Z,46.72
2022-11-01T11:06:07.555Z,46.64
2022-11-01T11:08:39.274Z,46.64
2022-11-01T11:11:15.953Z,46.91
2022-11-01T11:13:49.983Z,46.80
2022-11-01T11:16:33.979Z,47.24
2022-11-01T11:19:20.023Z,46.81
2022-11-01T11:21:51.468Z,47.08
2022-11-01T11:24:32.802Z,47.20
2022-11-01T11:27:04.990Z,46.93
2022-11-01T11:29:33.774Z,47.16
2022-11-01T11:32:04.051Z,47.38
2022-11-01T11:34:36.355Z,47.51
2022-11-01T11:37:08.532Z,47.79
2022-11-01T11:39:38.520Z,47.44
2022-11-01T11:42:22.536Z,47.96
2022-11-01T11:44:55.904Z,47.75
2022-11-01T11:47:28.750Z,47.72
2022-11-01T11:50:01.139Z,48.07
2022-11-01T11:52:38.722Z,48.17
2022-11-01T11:55:35.150Z,48.21
2022-11-01T11:58:06.121Z,47.94
2022-11-01T12:00:39.895Z,48.32
2022-11-01T12:03:14.934Z,48.13
2022-11-01T12:05:58.304Z,48.41
2022-11-01T12:08:35.916Z,48.18
2022-11-01T12:11:06.376Z,48.48
2022-11-01T12:13:47.337Z,48.65
2022-11-01T12:16:20.759Z,48.60
2022-11-01T12:18:54.586Z,48.62
2022-11-01T12:21:36.516Z,48.89
2022-11-01T12:24:23.885Z,49.05
2022-11-01T12:26:57.775Z,48.82
2022-11-01T12:29:30.656Z,48.81
2022-11-01T12:32:15.191Z,48.70
2022-11-01T12:34:48.138Z,48.98
2022-11-01T12:37:27.330Z,49.32
2022-11-01T12:40:05.931Z,49.02
2022-11-01T12:43:02.078Z,49.30
2022-11-01T12:45:50.687Z,49.24
2022-11-01T12:48:48.454Z,49.73
2022-11-01T12:51:29.786Z,49.15
2022-11-01T12:54:27.498Z,49.54
2022-11-01T12:56:57.534Z,49.45
2022-11-01T12:59:35.130Z,49.56
2022-11-01T13:02:23.927Z,49.86
2022-11-01T13:05:02.019Z,49.46
2022-11-01T13:07:55.342Z,49.88
2022-11-01T13:10:38.719Z,49.72
2022-11-01T13:13:55.038Z,50.04
2022-11-01T13:16:37.406Z,50.06
2022-11-01T13:19:24.438Z,50.19
2022-11-01T13:22:15.401Z,49.79
2022-11-01T13:24:57.846Z,50.36
2022-11-01T13:27:39.285Z,50.29
2022-11-01T13:30:19.449Z,50.38
2022-11-01T13:32:54.351Z,50.33
2022-11-01T13:35:49.060Z,50.22
2022-11-01T13:38:41.971Z,50.51
2022-11-01T13:41:22.052Z,50.36
2022-11-01T13:44:07.555Z,50.74
2022-11-01T13:46:54.581Z,50.42
2022-11-01T13:49:32.311Z,50.41
2022-11-01T13:52:19.976Z,50.77
2022-11-01T13:54:57.802Z,50.38
2022-11-01T13:57:28.163Z,50.39
2022-11-01T14:00:07.532Z,50.48
2022-11-01T14:02:52.816Z,50.61
2022-11-01T14:05:22.106Z,50.21
2022-11-01T14:07:53.897Z,50.39
2022-11-01T14:10:31.835Z,50.54
2022-11-01T14:13:12.589Z,51.07
2022-11-01T14:15:56.399Z,50.98
2022-11-01T14:18:26.008Z,50.39
2022-11-01T14:20:56.251Z,50.64
2022-11-01T14:23:32.098Z,50.66
2022-11-01T14:26:19.451Z,50.76
2022-11-01T14:28:54.954Z,50.67
2022-11-01T14:31:32.581Z,50.60
2022-11-01T14:34:03.689Z,50.63
2022-11-01T14:36:35.608Z,50.75
2022-11-01T14:39:15.981Z,50.90
2022-11-01T14:41:50.192Z,50.65
2022-11-01T14:44:40.868Z,51.01
2022-11-01T14:47:25.831Z,51.06
2022-11-01T14:49:59.997Z,51.03
2022-11-01T14:52:46.446Z,50.99
2022-11-01T14:55:21.579Z,50.73
2022-11-01T14:57:50.888Z,50.98
2022-11-01T15:00:23.615Z,51.13
2022-11-01T15:02:53.284Z,51.04
2022-11-01T15:05:22.319Z,51.38
2022-11-01T15:07:54.630Z,51.25
2022-11-01T15:10:24.078Z,51.15
2022-11-01T15:12:56.024Z,51.62
2022-11-01T15:15:31.377Z,51.19
2022-11-01T15:18:18.858Z,51.61
2022-11-01T15:21:07.763Z,51.74
2022-11-01T15:23:38.684Z,51.31
2022-11-01T15:26:13.615Z,51.33
2022-11-01T15:28:55.674Z,51.41
2022-11-01T15:31:25.036Z,51.55
2022-11-01T15:34:02.502Z,51.60
2022-11-01T15:36:37.594Z,51.70
2022-11-01T15:39:24.660Z,51.90
2022-11-01T15:41:57.710Z,51.79
2022-11-01T15:44:30.421Z,51.45
2022-11-01T15:47:02.226Z,52.11
2022-11-01T15:50:04.206Z,52.07
2022-11-01T15:52:34.523Z,51.76
2022-11-01T15:55:29.851Z,52.15
2022-11-01T15:58:11.918Z,52.05
2022-11-01T16:00:52.014Z,52.15
2022-11-01T16:03:35.042Z,51.91
2022-11-01T16:06:36.345Z,51.90
2022-11-01T16:09:15.643Z,52.21
2022-11-01T16:11:45.488Z,51.88
2022-11-01T16:14:34.868Z,52.08
2022-11-01T16:17:25.448Z,52.09
2022-11-01T16:19:54.679Z,51.92
2022-11-01T16:22:31.964Z,52.39
2022-11-01T16:25:12.605Z,52.04
2022-11-01T16:28:03.224Z,52.22
2022-11-01T16:30:52.876Z,52.02
2022-11-01T16:33:23.425Z,52.07
2022-11-01T16:35:58.141Z,52.33
2022-11-01T16:38:29.924Z,52.46
2022-11-01T16:41:16.528Z,52.20
2022-11-01T16:43:52.810Z,52.69
2022-11-01T16:46:22.716Z,52.11
2022-11-01T16:49:06.221Z,52.27
2022-11-01T16:51:35.218Z,52.32
2022-11-01T16:54:03.934Z,52.38
2022-11-01T16:56:40.390Z,52.61
2022-11-01T16:59:33.740Z,52.51
2022-11-01T17:02:15.944Z,52.54
2022-11-01T17:04:48.123Z,52.94
2022-11-01T17:07:17.307Z,52.55
2022-11-01T17:09:46.433Z,52.59
2022-11-01T17:12:15.531Z,52.51
2022-11-01T17:14:45.367Z,52.73
2022-11-01T17:17:17.954Z,52.54
2022-11-01T17:19:50.187Z,52.85
2022-11-01T17:22:24.191Z,52.81
2022-11-01T17:24:52.953Z,53.06
2022-11-01T17:27:22.927Z,53.06
2022-11-01T17:29:52.352Z,52.81
2022-11-01T17:32:21.120Z,52.71
2022-11-01T17:34:49.941Z,53.17
2022-11-01T17:37:18.759Z,52.82
2022-11-01T17:39:47.898Z,53.20
2022-11-01T17:42:16.824Z,53.32
2022-11-01T17:44:45.578Z,53.26
2022-11-01T17:47:16.072Z,53.10
2022-11-01T17:49:44.921Z,53.02
2022-11-01T17:52:13.745Z,52.84
2022-11-01T17:54:42.453Z,53.50
2022-11-01T17:57:11.197Z,53.23
2022-11-01T17:59:40.037Z,53.46
2022-11-01T18:02:11.336Z,53.23
2022-11-01T18:04:40.294Z,53.50
2022-11-01T18:07:12.622Z,53.41
2022-11-01T18:09:43.312Z,53.41
2022-11-01T18:13:16.052Z,53.80
2022-11-01T18:16:13.407Z,53.93
2022-11-01T18:19:03.360Z,53.74
2022-11-01T18:21:48.274Z,53.71
2022-11-01T18:24:27.564Z,54.12
2022-11-01T18:26:58.498Z,53.52
2022-11-01T18:29:27.249Z,53.95
2022-11-01T18:32:02.075Z,53.80
2022-11-01T18:34:40.885Z,54.03
2022-11-01T18:37:12.685Z,54.08
2022-11-01T18:39:59.439Z,54.09
2022-11-01T18:42:28.119Z,53.98
2022-11-01T18:44:59.137Z,54.29
2022-11-01T18:47:35.530Z,53.93
2022-11-01T18:50:16.663Z,54.35
2022-11-01T18:52:45.421Z,54.48
2022-11-01T18:55:14.529Z,54.46
2022-11-01T18:57:43.355Z,54.45
2022-11-01T19:00:14.888Z,54.64
2022-11-01T19:02:43.941Z,54.51
2022-11-01T19:05:18.880Z,54.35
2022-11-01T19:10:42.831Z,54.87
2022-11-01T19:13:16.377Z,54.72
2022-11-01T19:15:47.986Z,54.43
2022-11-01T19:18:23.368Z,54.64
2022-11-01T19:20:59.875Z,54.77
2022-11-01T19:23:41.305Z,54.62
2022-11-01T19:26:37.057Z,54.90
2022-11-01T19:29:19.552Z,54.65
2022-11-01T19:31:51.883Z,54.85
2022-11-01T19:34:24.522Z,54.94
2022-11-01T19:36:54.166Z,54.46
2022-11-01T19:39:37.535Z,54.57
2022-11-01T19:42:36.677Z,55.03
2022-11-01T19:45:29.500Z,54.89
2022-11-01T19:48:02.559Z,54.78
2022-11-01T19:50:40.558Z,54.60
2022-11-01T19:53:15.811Z,55.08
2022-11-01T19:55:49.066Z,54.93
2022-11-01T19:58:25.392Z,54.79
2022-11-01T20:01:04.986Z,54.71
2022-11-01T20:03:58.377Z,54.78
2022-11-01T20:06:37.801Z,55.06
2022-11-01T20:09:20.390Z,55.04
2022-11-01T20:11:49.612Z,54.97
2022-11-01T20:14:18.589Z,55.09
2022-11-01T20:16:47.472Z,55.16
2022-11-01T20:19:17.736Z,54.90
2022-11-01T20:21:47.198Z,55.14
2022-11-01T20:24:16.556Z,55.39
2022-11-01T20:26:45.433Z,54.86
2022-11-01T20:29:15.070Z,55.23
2022-11-01T20:31:44.096Z,55.48
2022-11-01T20:34:12.844Z,55.32
2022-11-01T20:36:41.679Z,55.46
2022-11-01T20:39:13.126Z,55.02
2022-11-01T20:41:44.361Z,55.47
2022-11-01T20:44:13.097Z,55.50
2022-11-01T20:46:41.823Z,55.27
2022-11-01T20:49:10.515Z,55.23
2022-11-01T20:51:41.081Z,55.42
2022-11-01T20:54:13.922Z,55.28
2022-11-01T20:56:45.551Z,55.28
2022-11-01T20:59:15.902Z,55.67
2022-11-01T21:01:48.486Z,55.67
2022-11-01T21:04:19.689Z,55.73
2022-11-01T21:06:48.545Z,55.85
2022-11-01T21:09:47.871Z,56.00
2022-11-01T21:12:49.109Z,55.46
2022-11-01T21:15:26.892Z,55.51
2022-11-01T21:18:10.843Z,55.56
2022-11-01T21:20:46.869Z,55.46
2022-11-01T21:23:35.235Z,55.32
2022-11-01T21:26:25.431Z,55.38
2022-11-01T21:28:56.200Z,55.61
2022-11-01T21:31:25.341Z,55.47
2022-11-01T21:34:02.505Z,55.76
2022-11-01T21:36:35.641Z,55.41
2022-11-01T21:39:15.609Z,55.94
2022-11-01T21:42:23.182Z,55.69
2022-11-01T21:44:52.604Z,55.65
2022-11-01T21:47:23.963Z,56.00
2022-11-01T21:49:52.785Z,55.65
2022-11-01T21:52:21.996Z,56.25
2022-11-01T21:54:50.942Z,56.39
2022-11-01T21:57:19.765Z,56.14
2022-11-01T21:59:48.850Z,56.09
2022-11-01T22:02:18.511Z,56.30
2022-11-01T22:04:47.548Z,56.51
2022-11-01T22:07:16.338Z,56.78
2022-11-01T22:09:45.313Z,56.49
2022-11-01T22:12:14.148Z,56.61
2022-11-01T22:14:42.840Z,56.81
2022-11-01T22:17:11.716Z,56.60
2022-11-01T22:19:40.386Z,56.60
2022-11-01T22:22:09.107Z,56.53
2022-11-01T22:24:37.832Z,56.48
2022-11-01T22:27:06.560Z,56.60
2022-11-01T22:29:36.039Z,56.62
2022-11-01T22:32:05.083Z,56.67
2022-11-01T22:34:34.432Z,56.85
2022-11-01T22:37:13.180Z,56.62
2022-11-01T22:39:42.798Z,56.69
2022-11-01T22:42:15.907Z,56.94
2022-11-01T22:44:49.773Z,57.15
2022-11-01T22:47:24.363Z,57.05
2022-11-01T22:49:58.272Z,57.00
2022-11-01T22:52:32.552Z,57.42
2022-11-01T22:55:13.677Z,57.48
2022-11-01T22:57:45.096Z,57.09
2022-11-01T23:00:34.242Z,57.11
2022-11-01T23:03:20.341Z,57.18
2022-11-01T23:05:53.255Z,57.16
2022-11-01T23:08:32.823Z,57.59
2022-11-01T23:11:02.781Z,57.22
2022-11-01T23:13:53.668Z,57.22
2022-11-01T23:16:29.451Z,57.38
2022-11-01T23:19:01.948Z,57.34
2022-11-01T23:21:31.172Z,57.32
2022-11-01T23:24:02.011Z,57.32
2022-11-01T23:26:31.772Z,57.40
2022-11-01T23:29:02.578Z,57.75
2022-11-01T23:31:31.391Z,57.71
2022-11-01T23:34:00.456Z,57.08
2022-11-01T23:36:35.954Z,57.49
2022-11-01T23:39:12.363Z,57.86
2022-11-01T23:41:48.259Z,57.81
2022-11-01T23:44:22.811Z,57.46
2022-11-01T23:46:52.087Z,57.97
2022-11-01T23:49:25.956Z,57.65
2022-11-01T23:51:54.766Z,57.78
2022-11-01T23:54:44.692Z,57.72
2022-11-01T23:57:20.370Z,58.04
2022-11-01T23:59:50.397Z,57.82
